createdAt,value
2017-11-09T00:01:25.296Z,0
2017-11-09T00:02:05.786Z,0
2017-11-09T00:02:46.270Z,0
2017-11-09T00:03:26.755Z,0
2017-11-09T00:04:07.224Z,0
2017-11-09T00:04:47.708Z,0
2017-11-09T00:05:28.190Z,0
2017-11-09T00:06:08.680Z,0
2017-11-09T00:06:49.177Z,0
2017-11-09T00:07:29.644Z,0
2017-11-09T00:08:10.131Z,0
2017-11-09T00:08:50.623Z,0
2017-11-09T00:09:31.107Z,0
2017-11-09T00:10:11.590Z,0
2017-11-09T00:10:52.075Z,0
2017-11-09T00:11:32.570Z,0
2017-11-09T00:12:13.043Z,0
2017-11-09T00:12:53.545Z,0
2017-11-09T00:13:34.034Z,0
2017-11-09T00:14:14.514Z,0
2017-11-09T00:14:55.005Z,0
2017-11-09T00:15:35.476Z,0
2017-11-09T00:16:15.975Z,0
2017-11-09T00:16:56.468Z,0
2017-11-09T00:17:36.960Z,0
2017-11-09T00:18:17.469Z,0
2017-11-09T00:18:57.964Z,0
2017-11-09T00:19:38.460Z,0
2017-11-09T00:20:18.946Z,0
2017-11-09T00:20:59.424Z,0
2017-11-09T00:21:39.910Z,0
2017-11-09T00:22:20.402Z,0
2017-11-09T00:23:00.886Z,0
2017-11-09T00:23:41.372Z,0
2017-11-09T00:24:21.862Z,0
2017-11-09T00:25:02.359Z,0
2017-11-09T00:25:42.839Z,0
2017-11-09T00:26:23.339Z,0
2017-11-09T00:27:03.814Z,0
2017-11-09T00:27:44.310Z,0
2017-11-09T00:28:24.783Z,0
2017-11-09T00:29:05.253Z,0
2017-11-09T00:29:45.754Z,0
2017-11-09T00:30:26.234Z,0
2017-11-09T00:31:06.745Z,0
2017-11-09T00:31:47.238Z,0
2017-11-09T00:32:27.713Z,0
2017-11-09T00:33:08.188Z,0
2017-11-09T00:33:48.666Z,0
2017-11-09T00:34:29.118Z,0
2017-11-09T00:35:09.618Z,0
2017-11-09T00:35:50.100Z,0
2017-11-09T00:36:30.581Z,0
2017-11-09T00:37:11.070Z,0
2017-11-09T00:37:51.561Z,0
2017-11-09T00:38:32.054Z,0
2017-11-09T00:39:12.530Z,0
2017-11-09T00:39:53.033Z,0
2017-11-09T00:40:33.518Z,0
2017-11-09T00:41:13.997Z,0
2017-11-09T00:41:54.481Z,0
2017-11-09T00:42:34.969Z,0
2017-11-09T00:43:15.436Z,0
2017-11-09T00:43:55.895Z,0
2017-11-09T00:44:36.381Z,0
2017-11-09T00:45:16.873Z,0
2017-11-09T00:45:57.323Z,0
2017-11-09T00:46:37.804Z,0
2017-11-09T00:47:18.290Z,0
2017-11-09T00:47:58.761Z,0
2017-11-09T00:48:39.242Z,0
2017-11-09T00:49:19.728Z,0
2017-11-09T00:50:00.218Z,0
2017-11-09T00:50:40.712Z,0
2017-11-09T00:51:21.211Z,0
2017-11-09T00:52:01.700Z,0
2017-11-09T00:52:42.210Z,0
2017-11-09T00:53:22.680Z,0
2017-11-09T00:54:03.182Z,0
2017-11-09T00:54:43.669Z,0
2017-11-09T00:55:24.137Z,0
2017-11-09T00:56:04.629Z,0
2017-11-09T00:56:45.109Z,0
2017-11-09T00:57:25.573Z,0
2017-11-09T00:58:06.060Z,0
2017-11-09T00:58:46.548Z,0
2017-11-09T00:59:27.041Z,0
2017-11-09T01:00:07.523Z,0
2017-11-09T01:00:48.026Z,0
2017-11-09T01:01:28.521Z,0
2017-11-09T01:02:09.063Z,0
2017-11-09T01:02:49.646Z,0
2017-11-09T01:03:30.126Z,0
2017-11-09T01:04:10.609Z,0
2017-11-09T01:04:51.108Z,0
2017-11-09T01:05:31.594Z,0
2017-11-09T01:06:12.075Z,0
2017-11-09T01:06:52.553Z,0
2017-11-09T01:07:33.091Z,0
2017-11-09T01:08:13.592Z,0
2017-11-09T01:08:54.060Z,0
2017-11-09T01:09:34.538Z,0
2017-11-09T01:10:15.027Z,0
2017-11-09T01:10:55.511Z,0
2017-11-09T01:11:35.997Z,0
2017-11-09T01:12:16.480Z,0
2017-11-09T01:12:56.964Z,0
2017-11-09T01:13:37.449Z,0
2017-11-09T01:14:17.942Z,0
2017-11-09T01:14:58.425Z,0
2017-11-09T01:15:38.912Z,0
2017-11-09T01:16:19.408Z,0
2017-11-09T01:16:59.883Z,0
2017-11-09T01:17:40.372Z,0
2017-11-09T01:18:20.860Z,0
2017-11-09T01:19:01.313Z,0
2017-11-09T01:19:41.747Z,0
2017-11-09T01:20:22.235Z,0
2017-11-09T01:21:02.733Z,0
2017-11-09T01:21:43.224Z,0
2017-11-09T01:22:23.716Z,0
2017-11-09T01:23:04.213Z,0
2017-11-09T01:23:44.693Z,0
2017-11-09T01:24:25.168Z,0
2017-11-09T01:25:05.666Z,0
2017-11-09T01:25:46.147Z,0
2017-11-09T01:26:26.627Z,0
2017-11-09T01:27:07.112Z,0
2017-11-09T01:27:47.597Z,0
2017-11-09T01:28:28.083Z,0
2017-11-09T01:29:08.563Z,0
2017-11-09T01:29:49.061Z,0
2017-11-09T01:30:29.557Z,0
2017-11-09T01:31:10.032Z,0
2017-11-09T01:31:50.515Z,0
2017-11-09T01:32:31.013Z,0
2017-11-09T01:33:11.496Z,0
2017-11-09T01:33:51.976Z,0
2017-11-09T01:34:32.472Z,0
2017-11-09T01:35:12.968Z,0
2017-11-09T01:35:53.453Z,0
2017-11-09T01:36:33.941Z,0
2017-11-09T01:37:14.434Z,0
2017-11-09T01:37:54.924Z,0
2017-11-09T01:38:35.404Z,0
2017-11-09T01:39:15.892Z,0
2017-11-09T01:39:56.386Z,0
2017-11-09T01:40:36.881Z,0
2017-11-09T01:41:17.356Z,0
2017-11-09T01:41:57.866Z,0
2017-11-09T01:42:38.341Z,0
2017-11-09T01:43:18.828Z,0
2017-11-09T01:43:59.316Z,0
2017-11-09T01:44:39.737Z,0
2017-11-09T01:45:20.189Z,0
2017-11-09T01:46:00.642Z,0
2017-11-09T01:46:41.098Z,0
2017-11-09T01:47:21.536Z,0
2017-11-09T01:48:01.998Z,0
2017-11-09T01:48:42.454Z,0
2017-11-09T01:50:40.051Z,0
2017-11-09T01:51:20.513Z,0
2017-11-09T01:52:01.010Z,0
2017-11-09T01:52:41.507Z,0
2017-11-09T01:53:21.991Z,0
2017-11-09T01:54:02.467Z,0
2017-11-09T01:54:42.958Z,0
2017-11-09T01:55:23.432Z,0
2017-11-09T01:56:03.913Z,0
2017-11-09T01:56:44.394Z,0
2017-11-09T01:57:24.880Z,0
2017-11-09T01:58:05.366Z,0
2017-11-09T01:58:45.835Z,0
2017-11-09T01:59:26.316Z,0
2017-11-09T02:00:06.794Z,0
2017-11-09T02:00:47.277Z,0
2017-11-09T02:01:27.768Z,0
2017-11-09T02:02:08.252Z,0
2017-11-09T02:02:48.742Z,0
2017-11-09T02:03:29.233Z,0
2017-11-09T02:04:09.719Z,0
2017-11-09T02:04:50.197Z,0
2017-11-09T02:05:30.677Z,0
2017-11-09T02:06:11.179Z,0
2017-11-09T02:06:51.675Z,0
2017-11-09T02:07:32.262Z,0
2017-11-09T02:08:12.759Z,0
2017-11-09T02:08:53.243Z,0
2017-11-09T02:09:33.762Z,0
2017-11-09T02:10:14.231Z,0
2017-11-09T02:10:54.733Z,0
2017-11-09T02:11:35.208Z,0
2017-11-09T02:12:15.703Z,0
2017-11-09T02:12:56.194Z,0
2017-11-09T02:13:36.678Z,0
2017-11-09T02:14:17.164Z,0
2017-11-09T02:14:57.652Z,0
2017-11-09T02:15:38.144Z,0
2017-11-09T02:16:18.636Z,0
2017-11-09T02:16:59.127Z,0
2017-11-09T02:17:39.610Z,0
2017-11-09T02:18:20.096Z,0
2017-11-09T02:19:00.595Z,0
2017-11-09T02:19:41.071Z,0
2017-11-09T02:20:21.556Z,0
2017-11-09T02:21:02.017Z,0
2017-11-09T02:21:42.505Z,0
2017-11-09T02:22:22.996Z,0
2017-11-09T02:23:03.490Z,0
2017-11-09T02:23:43.963Z,0
2017-11-09T02:24:24.455Z,0
2017-11-09T02:25:04.935Z,0
2017-11-09T02:25:45.409Z,0
2017-11-09T02:26:25.886Z,0
2017-11-09T02:27:06.389Z,0
2017-11-09T02:27:46.863Z,0
2017-11-09T02:28:27.313Z,0
2017-11-09T02:29:07.787Z,0
2017-11-09T02:29:48.266Z,0
2017-11-09T02:30:28.740Z,0
2017-11-09T02:31:09.229Z,0
2017-11-09T02:31:49.726Z,0
2017-11-09T02:32:30.214Z,0
2017-11-09T02:33:10.704Z,0
2017-11-09T02:33:51.200Z,0
2017-11-09T02:34:31.693Z,0
2017-11-09T02:35:12.159Z,0
2017-11-09T02:35:52.649Z,0
2017-11-09T02:36:33.139Z,0
2017-11-09T02:37:13.614Z,0
2017-11-09T02:37:54.110Z,0
2017-11-09T02:38:34.604Z,0
2017-11-09T02:39:15.093Z,0
2017-11-09T02:39:55.581Z,0
2017-11-09T02:40:36.057Z,0
2017-11-09T02:41:16.552Z,0
2017-11-09T02:41:57.030Z,0
2017-11-09T02:42:37.503Z,0
2017-11-09T02:43:17.974Z,0
2017-11-09T02:43:58.468Z,0
2017-11-09T02:44:38.941Z,0
2017-11-09T02:45:19.425Z,0
2017-11-09T02:45:59.897Z,0
2017-11-09T02:46:40.382Z,0
2017-11-09T02:47:20.889Z,0
2017-11-09T02:48:01.390Z,0
2017-11-09T02:48:41.889Z,0
2017-11-09T02:49:22.376Z,0
2017-11-09T02:50:02.865Z,0
2017-11-09T02:50:43.335Z,0
2017-11-09T02:51:23.815Z,0
2017-11-09T02:52:04.304Z,0
2017-11-09T02:52:44.787Z,0
2017-11-09T02:53:25.274Z,0
2017-11-09T02:54:05.764Z,0
2017-11-09T02:54:46.212Z,0
2017-11-09T02:55:26.705Z,0
2017-11-09T02:56:07.180Z,0
2017-11-09T02:56:47.669Z,0
2017-11-09T02:57:28.156Z,0
2017-11-09T02:58:08.643Z,0
2017-11-09T02:58:49.131Z,0
2017-11-09T02:59:29.636Z,0
2017-11-09T03:00:10.139Z,0
2017-11-09T03:00:50.607Z,0
2017-11-09T03:01:31.105Z,0
2017-11-09T03:02:11.576Z,0
2017-11-09T03:02:52.071Z,0
2017-11-09T03:03:32.568Z,0
2017-11-09T03:04:13.055Z,0
2017-11-09T03:04:53.528Z,0
2017-11-09T03:05:33.986Z,0
2017-11-09T03:06:14.442Z,0
2017-11-09T03:06:54.917Z,0
2017-11-09T03:07:35.399Z,0
2017-11-09T03:08:15.893Z,0
2017-11-09T03:08:56.359Z,0
2017-11-09T03:09:36.855Z,0
2017-11-09T03:10:17.328Z,0
2017-11-09T03:10:57.818Z,0
2017-11-09T03:11:38.316Z,0
2017-11-09T03:12:18.900Z,0
2017-11-09T03:12:59.541Z,0
2017-11-09T03:13:40.169Z,0
2017-11-09T03:14:20.824Z,0
2017-11-09T03:15:01.493Z,0
2017-11-09T03:15:42.109Z,0
2017-11-09T03:16:22.741Z,0
2017-11-09T03:17:03.387Z,0
2017-11-09T03:17:44.019Z,0
2017-11-09T03:18:24.673Z,0
2017-11-09T03:19:05.309Z,0
2017-11-09T03:19:45.804Z,0
2017-11-09T03:21:58.638Z,0
2017-11-09T03:22:39.022Z,0
2017-11-09T03:23:19.504Z,0
2017-11-09T03:23:59.978Z,0
2017-11-09T03:24:40.442Z,0
2017-11-09T03:25:20.877Z,0
2017-11-09T03:26:01.330Z,0
2017-11-09T03:26:41.768Z,0
2017-11-09T03:27:22.227Z,0
2017-11-09T03:28:02.750Z,0
2017-11-09T03:28:43.178Z,0
2017-11-09T03:29:23.680Z,0
2017-11-09T03:31:36.405Z,0
2017-11-09T03:32:16.890Z,0
2017-11-09T03:32:57.359Z,0
2017-11-09T03:33:37.844Z,0
2017-11-09T03:34:18.338Z,0
2017-11-09T03:34:58.803Z,0
2017-11-09T03:35:39.317Z,0
2017-11-09T03:36:19.750Z,0
2017-11-09T03:37:00.233Z,0
2017-11-09T03:37:40.699Z,0
2017-11-09T03:38:21.125Z,0
2017-11-09T03:40:18.744Z,0
2017-11-09T03:40:59.227Z,0
2017-11-09T03:41:39.751Z,0
2017-11-09T03:42:20.211Z,0
2017-11-09T03:43:00.698Z,0
2017-11-09T03:43:41.193Z,0
2017-11-09T03:44:21.657Z,0
2017-11-09T03:45:02.153Z,0
2017-11-09T03:45:42.659Z,0
2017-11-09T03:46:23.121Z,0
2017-11-09T03:47:03.575Z,0
2017-11-09T03:47:44.050Z,0
2017-11-09T03:48:24.514Z,0
2017-11-09T03:49:04.989Z,0
2017-11-09T03:49:45.461Z,0
2017-11-09T03:50:25.941Z,0
2017-11-09T03:51:06.427Z,0
2017-11-09T03:53:39.424Z,0
2017-11-09T03:54:19.937Z,0
2017-11-09T03:55:00.488Z,0
2017-11-09T03:55:40.984Z,0
2017-11-09T03:56:21.440Z,0
2017-11-09T03:57:02.431Z,0
2017-11-09T03:57:42.865Z,0
2017-11-09T03:58:23.362Z,0
2017-11-09T03:59:03.842Z,0
2017-11-09T03:59:44.321Z,0
2017-11-09T04:00:24.780Z,0
2017-11-09T04:01:05.257Z,0
2017-11-09T04:03:33.212Z,0
2017-11-09T04:04:13.784Z,0
2017-11-09T04:04:54.124Z,0
2017-11-09T04:05:34.594Z,0
2017-11-09T04:06:15.046Z,0
2017-11-09T04:06:55.516Z,0
2017-11-09T04:07:35.952Z,0
2017-11-09T04:08:16.444Z,0
2017-11-09T04:08:56.874Z,0
2017-11-09T04:09:37.343Z,0
2017-11-09T04:10:17.773Z,0
2017-11-09T04:10:58.251Z,0
2017-11-09T04:11:38.690Z,0
2017-11-09T04:12:19.232Z,0
2017-11-09T04:12:59.677Z,0
2017-11-09T04:13:40.136Z,0
2017-11-09T04:14:20.589Z,0
2017-11-09T04:15:01.018Z,0
2017-11-09T04:16:58.629Z,0
2017-11-09T04:17:39.111Z,0
2017-11-09T04:18:19.598Z,0
2017-11-09T04:19:00.091Z,0
2017-11-09T04:19:40.555Z,0
2017-11-09T04:20:21.090Z,0
2017-11-09T04:21:01.560Z,0
2017-11-09T04:21:42.060Z,0
2017-11-09T04:22:22.504Z,0
2017-11-09T04:23:03.014Z,0
2017-11-09T04:25:36.016Z,0
2017-11-09T04:26:16.508Z,0
2017-11-09T04:26:56.981Z,0
2017-11-09T04:27:37.461Z,0
2017-11-09T04:28:17.940Z,0
2017-11-09T04:30:50.989Z,0
2017-11-09T04:31:31.466Z,0
2017-11-09T04:32:11.951Z,0
2017-11-09T04:32:52.402Z,0
2017-11-09T04:33:32.870Z,0
2017-11-09T04:34:13.335Z,0
2017-11-09T04:34:53.820Z,0
2017-11-09T04:35:34.353Z,0
2017-11-09T04:36:14.892Z,0
2017-11-09T04:36:55.357Z,0
2017-11-09T04:37:35.845Z,0
2017-11-09T04:38:16.400Z,0
2017-11-09T04:38:56.828Z,0
2017-11-09T04:39:37.289Z,0
2017-11-09T04:40:17.775Z,0
2017-11-09T04:40:58.285Z,0
2017-11-09T04:41:38.797Z,0
2017-11-09T04:42:19.265Z,0
2017-11-09T04:42:59.791Z,0
2017-11-09T04:43:40.241Z,0
2017-11-09T04:44:20.740Z,0
2017-11-09T04:45:01.245Z,0
2017-11-09T04:45:41.737Z,0
2017-11-09T04:46:22.165Z,0
2017-11-09T04:47:02.642Z,0
2017-11-09T04:47:43.093Z,0
2017-11-09T04:48:23.575Z,0
2017-11-09T04:49:04.045Z,0
2017-11-09T04:49:44.502Z,0
2017-11-09T04:52:17.575Z,0
2017-11-09T04:52:58.126Z,0
2017-11-09T04:53:38.521Z,0
2017-11-09T04:54:18.951Z,0
2017-11-09T04:54:59.399Z,0
2017-11-09T04:55:39.799Z,0
2017-11-09T04:56:20.244Z,0
2017-11-09T04:57:00.689Z,0
2017-11-09T04:57:41.128Z,0
2017-11-09T05:00:09.241Z,0
2017-11-09T05:00:49.542Z,0
2017-11-09T05:01:29.998Z,0
2017-11-09T05:02:10.513Z,0
2017-11-09T05:02:50.985Z,0
2017-11-09T05:03:31.466Z,0
2017-11-09T05:04:11.985Z,0
2017-11-09T05:04:52.453Z,0
2017-11-09T05:05:32.939Z,0
2017-11-09T05:06:13.431Z,0
2017-11-09T05:06:53.851Z,0
2017-11-09T05:07:34.326Z,0
2017-11-09T05:08:14.790Z,0
2017-11-09T05:08:55.236Z,0
2017-11-09T05:09:35.640Z,0
2017-11-09T05:10:16.129Z,0
2017-11-09T05:10:56.580Z,0
2017-11-09T05:11:37.049Z,0
2017-11-09T05:12:17.504Z,0
2017-11-09T05:12:57.948Z,0
2017-11-09T05:13:38.418Z,0
2017-11-09T05:14:18.866Z,0
2017-11-09T05:14:59.279Z,0
2017-11-09T05:15:39.748Z,0
2017-11-09T05:16:20.265Z,0
2017-11-09T05:17:00.703Z,0
2017-11-09T05:17:41.186Z,0
2017-11-09T05:18:22.272Z,0
2017-11-09T05:19:02.735Z,0
2017-11-09T05:19:43.214Z,0
2017-11-09T05:20:23.691Z,0
2017-11-09T05:22:51.605Z,0
2017-11-09T05:23:32.092Z,0
2017-11-09T05:24:12.540Z,0
2017-11-09T05:24:53.015Z,0
2017-11-09T05:25:33.469Z,0
2017-11-09T05:28:01.510Z,0
2017-11-09T05:28:41.941Z,0
2017-11-09T05:29:22.380Z,0
2017-11-09T05:31:55.360Z,0
2017-11-09T05:32:36.088Z,0
2017-11-09T05:33:16.572Z,0
2017-11-09T05:33:57.059Z,0
2017-11-09T05:34:37.524Z,0
2017-11-09T05:35:18.051Z,0
2017-11-09T05:35:58.507Z,0
2017-11-09T05:36:38.998Z,0
2017-11-09T05:37:19.486Z,0
2017-11-09T05:37:59.935Z,0
2017-11-09T05:38:40.399Z,0
2017-11-09T05:39:20.872Z,0
2017-11-09T05:40:01.352Z,0
2017-11-09T05:40:41.839Z,0
2017-11-09T05:41:22.257Z,0
2017-11-09T05:42:02.718Z,0
2017-11-09T05:42:43.170Z,0
2017-11-09T05:43:23.687Z,0
2017-11-09T05:44:04.105Z,0
2017-11-09T05:46:21.901Z,0
2017-11-09T05:47:02.457Z,0
2017-11-09T05:47:42.817Z,0
2017-11-09T05:48:23.309Z,0
2017-11-09T05:49:03.755Z,0
2017-11-09T05:49:44.189Z,0
2017-11-09T05:50:24.621Z,0
2017-11-09T05:51:05.113Z,0
2017-11-09T05:51:45.586Z,0
2017-11-09T05:52:26.070Z,0
2017-11-09T05:53:06.547Z,0
2017-11-09T05:53:46.973Z,0
2017-11-09T05:55:45.411Z,0
2017-11-09T05:56:25.873Z,0
2017-11-09T05:57:06.414Z,0
2017-11-09T05:57:46.910Z,0
2017-11-09T05:58:27.356Z,0
2017-11-09T05:59:08.919Z,0
2017-11-09T05:59:49.592Z,0
2017-11-09T06:00:30.241Z,0
2017-11-09T06:01:10.882Z,0
2017-11-09T06:01:51.427Z,0
2017-11-09T06:02:32.087Z,0
2017-11-09T06:03:12.612Z,0
2017-11-09T06:03:53.184Z,0
2017-11-09T06:04:33.835Z,4
2017-11-09T06:05:14.463Z,4
2017-11-09T06:05:55.074Z,4
2017-11-09T06:06:35.758Z,4
2017-11-09T06:07:16.458Z,0
2017-11-09T06:07:57.172Z,0
2017-11-09T06:08:37.809Z,4
2017-11-09T06:09:18.418Z,4
2017-11-09T06:09:59.009Z,4
2017-11-09T06:10:39.618Z,4
2017-11-09T06:11:20.220Z,4
2017-11-09T06:12:00.825Z,4
2017-11-09T06:12:41.445Z,4
2017-11-09T06:13:22.078Z,4
2017-11-09T06:14:03.649Z,8
2017-11-09T06:14:44.247Z,4
2017-11-09T06:15:24.892Z,8
2017-11-09T06:16:05.537Z,8
2017-11-09T06:16:46.175Z,8
2017-11-09T06:17:26.823Z,8
2017-11-09T06:18:07.440Z,12
2017-11-09T06:18:48.096Z,12
2017-11-09T06:19:28.728Z,12
2017-11-09T06:20:09.358Z,12
2017-11-09T06:20:49.928Z,16
2017-11-09T06:21:30.452Z,16
2017-11-09T06:22:10.911Z,20
2017-11-09T06:22:51.385Z,20
2017-11-09T06:24:49.045Z,24
2017-11-09T06:25:29.512Z,24
2017-11-09T06:26:09.986Z,28
2017-11-09T06:26:50.459Z,28
2017-11-09T06:27:30.951Z,28
2017-11-09T06:28:11.444Z,32
2017-11-09T06:28:51.915Z,28
2017-11-09T06:29:32.445Z,28
2017-11-09T06:30:13.109Z,32
2017-11-09T06:30:53.673Z,28
2017-11-09T06:31:34.217Z,32
2017-11-09T06:32:14.709Z,32
2017-11-09T06:32:55.171Z,36
2017-11-09T06:33:35.654Z,36
2017-11-09T06:36:03.651Z,44
2017-11-09T06:36:44.293Z,52
2017-11-09T06:37:24.959Z,56
2017-11-09T06:38:05.608Z,56
2017-11-09T06:38:46.284Z,64
2017-11-09T06:39:26.933Z,68
2017-11-09T06:40:07.549Z,68
2017-11-09T06:40:48.152Z,72
2017-11-09T06:41:28.734Z,72
2017-11-09T06:42:09.289Z,76
2017-11-09T06:42:49.909Z,80
2017-11-09T06:43:30.609Z,84
2017-11-09T06:44:11.219Z,84
2017-11-09T06:44:51.749Z,88
2017-11-09T06:45:32.253Z,92
2017-11-09T06:46:12.764Z,92
2017-11-09T06:46:53.218Z,92
2017-11-09T06:47:33.747Z,92
2017-11-09T06:48:14.259Z,96
2017-11-09T06:48:54.761Z,96
2017-11-09T06:49:35.290Z,96
2017-11-09T06:50:15.828Z,100
2017-11-09T06:50:56.380Z,104
2017-11-09T06:51:36.902Z,108
2017-11-09T06:52:17.382Z,116
2017-11-09T06:52:57.876Z,124
2017-11-09T06:53:38.413Z,132
2017-11-09T06:54:18.934Z,136
2017-11-09T06:54:59.438Z,148
2017-11-09T06:55:40.027Z,152
2017-11-09T06:56:20.561Z,156
2017-11-09T06:57:01.118Z,156
2017-11-09T06:57:41.608Z,172
2017-11-09T06:58:22.111Z,188
2017-11-09T06:59:02.580Z,204
2017-11-09T06:59:43.332Z,216
2017-11-09T07:00:23.823Z,220
2017-11-09T07:01:04.319Z,228
2017-11-09T07:01:44.805Z,244
2017-11-09T07:02:25.298Z,260
2017-11-09T07:03:05.770Z,280
2017-11-09T07:03:46.221Z,308
2017-11-09T07:04:26.669Z,324
2017-11-09T07:05:07.156Z,328
2017-11-09T07:05:47.693Z,340
2017-11-09T07:06:28.202Z,356
2017-11-09T07:07:08.704Z,376
2017-11-09T07:07:49.196Z,376
2017-11-09T07:08:29.693Z,388
2017-11-09T07:09:10.191Z,412
2017-11-09T07:09:50.678Z,432
2017-11-09T07:10:31.166Z,444
2017-11-09T07:11:11.661Z,424
2017-11-09T07:11:52.125Z,432
2017-11-09T07:12:32.582Z,432
2017-11-09T07:13:13.048Z,444
2017-11-09T07:13:53.540Z,444
2017-11-09T07:14:34.022Z,444
2017-11-09T07:15:14.499Z,448
2017-11-09T07:15:54.974Z,464
2017-11-09T07:16:35.465Z,460
2017-11-09T07:17:15.952Z,476
2017-11-09T07:17:56.470Z,480
2017-11-09T07:18:36.965Z,504
2017-11-09T07:19:17.439Z,500
2017-11-09T07:19:57.880Z,508
2017-11-09T07:20:38.342Z,532
2017-11-09T07:21:18.794Z,536
2017-11-09T07:21:59.268Z,524
2017-11-09T07:22:39.759Z,516
2017-11-09T07:23:20.307Z,512
2017-11-09T07:24:00.812Z,536
2017-11-09T07:24:41.295Z,532
2017-11-09T07:25:21.779Z,532
2017-11-09T07:26:02.272Z,548
2017-11-09T07:26:42.774Z,548
2017-11-09T07:27:23.244Z,528
2017-11-09T07:28:03.757Z,508
2017-11-09T07:28:44.250Z,536
2017-11-09T07:29:24.748Z,532
2017-11-09T07:30:05.253Z,540
2017-11-09T07:30:45.737Z,548
2017-11-09T07:31:26.217Z,512
2017-11-09T07:32:06.677Z,536
2017-11-09T07:32:47.147Z,552
2017-11-09T07:33:27.609Z,544
2017-11-09T07:34:08.106Z,568
2017-11-09T07:34:48.597Z,552
2017-11-09T07:35:29.080Z,548
2017-11-09T07:36:09.637Z,532
2017-11-09T07:36:50.134Z,576
2017-11-09T07:37:30.621Z,596
2017-11-09T07:38:11.105Z,588
2017-11-09T07:38:51.576Z,576
2017-11-09T07:39:32.090Z,620
2017-11-09T07:40:12.571Z,640
2017-11-09T07:40:53.072Z,632
2017-11-09T07:41:33.562Z,648
2017-11-09T07:42:14.041Z,660
2017-11-09T07:42:54.508Z,676
2017-11-09T07:43:35.017Z,700
2017-11-09T07:44:15.510Z,748
2017-11-09T07:44:56.002Z,780
2017-11-09T07:45:36.495Z,808
2017-11-09T07:46:16.985Z,836
2017-11-09T07:46:57.483Z,868
2017-11-09T07:47:38.017Z,880
2017-11-09T07:48:18.509Z,896
2017-11-09T07:48:59.025Z,920
2017-11-09T07:49:39.493Z,960
2017-11-09T07:50:19.984Z,912
2017-11-09T07:51:00.469Z,924
2017-11-09T07:51:40.964Z,952
2017-11-09T07:52:21.445Z,952
2017-11-09T07:53:01.942Z,944
2017-11-09T07:53:42.439Z,940
2017-11-09T07:54:22.921Z,936
2017-11-09T07:55:03.406Z,964
2017-11-09T07:55:43.901Z,972
2017-11-09T07:56:24.399Z,940
2017-11-09T07:57:04.884Z,968
2017-11-09T07:57:45.386Z,984
2017-11-09T07:59:58.150Z,1004
2017-11-09T08:00:38.623Z,1024
2017-11-09T08:01:19.107Z,992
2017-11-09T08:01:59.587Z,1048
2017-11-09T08:02:40.111Z,1064
2017-11-09T08:03:20.598Z,1092
2017-11-09T08:04:01.115Z,1112
2017-11-09T08:04:41.561Z,1128
2017-11-09T08:05:22.046Z,1172
2017-11-09T08:06:02.596Z,1176
2017-11-09T08:06:43.073Z,1220
2017-11-09T08:07:23.587Z,1200
2017-11-09T08:08:04.085Z,1240
2017-11-09T08:08:44.601Z,1276
2017-11-09T08:09:25.088Z,1256
2017-11-09T08:10:05.645Z,1260
2017-11-09T08:10:46.205Z,1292
2017-11-09T08:11:26.684Z,1304
2017-11-09T08:12:07.171Z,1240
2017-11-09T08:12:47.666Z,1268
2017-11-09T08:13:28.152Z,1248
2017-11-09T08:14:08.637Z,1248
2017-11-09T08:14:49.146Z,1252
2017-11-09T08:15:29.618Z,1220
2017-11-09T08:16:10.107Z,1200
2017-11-09T08:16:50.596Z,1172
2017-11-09T08:17:31.113Z,1140
2017-11-09T08:18:11.629Z,1096
2017-11-09T08:18:52.106Z,1044
2017-11-09T08:19:32.574Z,1044
2017-11-09T08:20:13.065Z,1048
2017-11-09T08:20:53.531Z,1040
2017-11-09T08:21:34.045Z,1060
2017-11-09T08:22:14.507Z,1060
2017-11-09T08:22:55.027Z,1076
2017-11-09T08:23:35.524Z,1108
2017-11-09T08:24:15.993Z,1144
2017-11-09T08:24:56.496Z,1192
2017-11-09T08:25:36.995Z,1220
2017-11-09T08:26:17.468Z,1244
2017-11-09T08:26:57.939Z,1292
2017-11-09T08:27:38.440Z,1352
2017-11-09T08:28:18.955Z,1380
2017-11-09T08:28:59.436Z,1400
2017-11-09T08:29:39.933Z,1476
2017-11-09T08:30:20.436Z,1544
2017-11-09T08:31:00.929Z,1564
2017-11-09T08:31:41.463Z,1560
2017-11-09T08:32:21.998Z,1452
2017-11-09T08:33:02.487Z,1412
2017-11-09T08:33:42.974Z,1436
2017-11-09T08:34:23.456Z,1392
2017-11-09T08:35:03.951Z,1400
2017-11-09T08:35:44.457Z,1376
2017-11-09T08:36:24.938Z,1348
2017-11-09T08:37:05.410Z,1328
2017-11-09T08:37:45.888Z,1384
2017-11-09T08:38:26.422Z,1460
2017-11-09T08:39:06.909Z,1524
2017-11-09T08:39:47.409Z,1576
2017-11-09T08:40:27.889Z,1608
2017-11-09T08:41:08.378Z,1660
2017-11-09T08:41:48.907Z,1660
2017-11-09T08:44:02.006Z,1568
2017-11-09T08:44:42.539Z,1520
2017-11-09T08:45:23.037Z,1516
2017-11-09T08:46:03.520Z,1432
2017-11-09T08:46:44.009Z,1340
2017-11-09T08:47:24.472Z,1304
2017-11-09T08:48:04.964Z,1240
2017-11-09T08:48:45.442Z,1248
2017-11-09T08:49:25.932Z,1288
2017-11-09T08:51:43.750Z,1284
2017-11-09T08:52:24.269Z,1332
2017-11-09T08:53:04.757Z,1364
2017-11-09T08:53:45.270Z,1384
2017-11-09T08:54:25.732Z,1428
2017-11-09T08:55:06.233Z,1468
2017-11-09T08:55:46.748Z,1448
2017-11-09T08:56:27.249Z,1460
2017-11-09T08:57:07.767Z,1520
2017-11-09T08:57:48.244Z,1584
2017-11-09T08:58:28.731Z,1632
2017-11-09T08:59:09.217Z,1652
2017-11-09T08:59:49.710Z,1684
2017-11-09T09:00:30.238Z,1704
2017-11-09T09:01:10.719Z,1732
2017-11-09T09:01:51.208Z,1748
2017-11-09T09:02:31.686Z,1740
2017-11-09T09:03:12.202Z,1784
2017-11-09T09:03:52.765Z,1852
2017-11-09T09:04:33.338Z,1872
2017-11-09T09:05:13.867Z,1880
2017-11-09T09:05:54.385Z,1952
2017-11-09T09:06:34.973Z,2000
2017-11-09T09:07:15.473Z,2008
2017-11-09T09:07:55.946Z,2044
2017-11-09T09:08:36.458Z,2144
2017-11-09T09:09:16.967Z,2240
2017-11-09T09:09:58.542Z,2404
2017-11-09T09:10:39.182Z,2412
2017-11-09T09:11:19.852Z,2472
2017-11-09T09:12:00.492Z,2496
2017-11-09T09:12:41.111Z,2512
2017-11-09T09:13:21.614Z,2580
2017-11-09T09:14:02.233Z,2632
2017-11-09T09:14:42.902Z,2624
2017-11-09T09:15:23.495Z,2468
2017-11-09T09:16:04.169Z,2400
2017-11-09T09:16:44.853Z,2492
2017-11-09T09:17:25.570Z,2612
2017-11-09T09:18:06.224Z,2632
2017-11-09T09:21:51.463Z,2948
2017-11-09T09:22:32.180Z,3016
2017-11-09T09:23:12.926Z,3016
2017-11-09T09:23:53.624Z,3032
2017-11-09T09:24:34.285Z,3088
2017-11-09T09:25:14.949Z,3052
2017-11-09T09:25:55.526Z,3048
2017-11-09T09:26:36.089Z,3180
2017-11-09T09:27:16.745Z,3332
2017-11-09T09:27:57.300Z,3436
2017-11-09T09:28:37.887Z,3468
2017-11-09T09:29:18.443Z,3336
2017-11-09T09:29:59.268Z,3328
2017-11-09T09:30:39.889Z,3328
2017-11-09T09:31:21.235Z,3324
2017-11-09T09:32:01.896Z,3208
2017-11-09T09:32:42.480Z,3236
2017-11-09T09:33:23.129Z,3228
2017-11-09T09:34:03.715Z,3064
2017-11-09T09:34:44.343Z,3196
2017-11-09T09:35:25.029Z,3244
2017-11-09T09:36:05.714Z,3160
2017-11-09T09:36:46.347Z,3080
2017-11-09T09:37:27.061Z,2980
2017-11-09T09:38:07.655Z,2948
2017-11-09T09:38:48.304Z,2772
2017-11-09T09:39:28.841Z,2804
2017-11-09T09:40:09.430Z,2916
2017-11-09T09:40:49.901Z,3016
2017-11-09T09:41:30.365Z,3196
2017-11-09T09:42:10.791Z,3240
2017-11-09T09:42:51.366Z,3172
2017-11-09T09:43:31.978Z,3116
2017-11-09T09:44:12.584Z,3420
2017-11-09T09:44:53.219Z,3360
2017-11-09T09:45:33.823Z,3284
2017-11-09T09:46:14.422Z,3468
2017-11-09T09:46:54.961Z,3456
2017-11-09T09:47:35.469Z,3548
2017-11-09T09:50:08.496Z,3128
2017-11-09T09:50:48.992Z,3160
2017-11-09T09:51:29.512Z,3228
2017-11-09T09:52:10.012Z,3096
2017-11-09T09:52:50.505Z,3100
2017-11-09T09:53:31.057Z,3232
2017-11-09T09:54:11.546Z,3232
2017-11-09T09:54:52.044Z,3196
2017-11-09T09:55:32.537Z,3168
2017-11-09T09:56:12.999Z,3156
2017-11-09T09:56:53.528Z,3048
2017-11-09T09:57:34.018Z,3056
2017-11-09T09:58:14.519Z,3028
2017-11-09T09:58:54.978Z,3152
2017-11-09T09:59:35.503Z,3072
2017-11-09T10:00:15.998Z,2848
2017-11-09T10:00:56.481Z,2684
2017-11-09T10:01:37.010Z,2660
2017-11-09T10:02:17.458Z,2724
2017-11-09T10:02:57.921Z,2648
2017-11-09T10:03:38.394Z,2540
2017-11-09T10:04:18.843Z,2416
2017-11-09T10:04:59.321Z,2376
2017-11-09T10:05:39.787Z,2272
2017-11-09T10:06:20.312Z,2120
2017-11-09T10:07:00.843Z,2084
2017-11-09T10:07:41.334Z,2092
2017-11-09T10:08:21.829Z,2156
2017-11-09T10:09:02.261Z,2008
2017-11-09T10:09:42.709Z,1912
2017-11-09T10:10:23.246Z,1892
2017-11-09T10:11:03.681Z,2092
2017-11-09T10:11:44.234Z,2168
2017-11-09T10:12:24.740Z,2128
2017-11-09T10:13:05.202Z,2184
2017-11-09T10:13:45.669Z,2316
2017-11-09T10:14:26.155Z,2368
2017-11-09T10:15:06.667Z,2376
2017-11-09T10:15:47.175Z,2312
2017-11-09T10:16:27.749Z,2144
2017-11-09T10:17:08.354Z,2212
2017-11-09T10:17:48.858Z,2280
2017-11-09T10:18:29.393Z,2344